Time;durP1;ratioP1;P1;durP2;ratioP2;P2;SDS_P1;SDS_P2;PMS_P1;PMS_P2;Temp;Humidity;BMP_temperature;BMP_pressure;BME280_temperature;BME280_humidity;BME280_pressure;Samples;Min_cycle;Max_cycle;Signal;HPM_P1;HPM_P2
2023/11/09 00:01:19;;;;;;;;;;;;;;;8.43;100.00;100025.75;6215286;23;19995;-84
2023/11/09 00:09:55;;;;;;;;;;;;;;;8.43;100.00;100011.53;6212568;23;19930;-85
2023/11/09 00:12:58;;;;;;;;;;;;;;;8.47;100.00;100016.28;6213306;23;19912;-85
2023/11/09 00:21:07;;;;;;;;;;;;;;;8.48;100.00;100003.72;6215575;23;19960;-86
2023/11/09 00:24:10;;;;;;;;;;;;;;;8.51;100.00;100008.66;6215311;23;19916;-86
2023/11/09 00:29:50;;;;;;;;;;;;;;;8.49;100.00;99983.91;6215723;23;19967;-84
2023/11/09 00:32:28;;;;;;;;;;;;;;;8.50;100.00;99980.19;6215527;23;19935;-85
2023/11/09 00:43:56;;;;;;;;;;;;;;;8.50;100.00;99964.09;6239090;23;19938;-84
2023/11/09 00:46:30;;;;;;;;;;;;;;;8.50;100.00;99964.09;6228499;23;19912;-85
2023/11/09 00:48:56;;;;;;;;;;;;;;;8.50;100.00;99942.63;6217659;23;19912;-84
2023/11/09 00:51:30;;;;;;;;;;;;;;;8.49;100.00;99949.03;6219670;23;19943;-84
2023/11/09 00:53:55;;;;;;;;;;;;;;;8.52;100.00;99937.91;6217241;23;19923;-84
2023/11/09 00:56:55;;;;;;;;;;;;;;;8.53;100.00;99952.16;6216317;23;20395;-85
2023/11/09 00:59:35;;;;;;;;;;;;;;;8.51;100.00;99941.59;6215586;23;19912;-85
2023/11/09 01:02:01;;;;;;;;;;;;;;;8.49;100.00;99935.63;6214832;23;19922;-84
2023/11/09 01:04:26;;;;;;;;;;;;;;;8.52;100.00;99935.22;6213758;23;19911;-86
2023/11/09 01:06:53;;;;;;;;;;;;;;;8.56;100.00;99920.38;6188942;23;19912;-85
2023/11/09 01:09:27;;;;;;;;;;;;;;;8.55;100.00;99928.63;6239418;23;19915;-84
2023/11/09 01:12:07;;;;;;;;;;;;;;;8.53;100.00;99928.00;6235137;23;19920;-87
2023/11/09 01:14:32;;;;;;;;;;;;;;;8.51;100.00;99925.50;6218470;23;19946;-84
2023/11/09 01:16:58;;;;;;;;;;;;;;;8.47;100.00;99910.84;6218146;23;19934;-84
2023/11/09 01:19:48;;;;;;;;;;;;;;;8.48;100.00;99916.03;6215962;23;19931;-86
2023/11/09 01:22:13;;;;;;;;;;;;;;;8.51;100.00;99909.41;6215937;22;19963;-84
2023/11/09 01:24:50;;;;;;;;;;;;;;;8.45;100.00;99915.59;6219636;23;19946;-86
2023/11/09 01:27:16;;;;;;;;;;;;;;;8.49;100.00;99911.47;6216236;23;20003;-84
2023/11/09 01:29:41;;;;;;;;;;;;;;;8.47;100.00;99916.22;6217413;23;19991;-85
2023/11/09 01:32:22;;;;;;;;;;;;;;;8.47;100.00;99900.94;6215842;23;20348;-85
2023/11/09 01:34:55;;;;;;;;;;;;;;;8.46;100.00;99898.47;6218698;23;19912;-86
2023/11/09 01:40:33;;;;;;;;;;;;;;;8.45;100.00;99891.47;6234314;23;19927;-83
2023/11/09 01:42:58;;;;;;;;;;;;;;;8.43;100.00;99888.97;6219928;23;19912;-86
2023/11/09 01:45:24;;;;;;;;;;;;;;;8.41;100.00;99887.53;6218391;23;19912;-85
2023/11/09 01:47:49;;;;;;;;;;;;;;;8.42;100.00;99878.47;6217283;23;19951;-85
2023/11/09 01:53:09;;;;;;;;;;;;;;;8.45;100.00;99868.13;6204194;23;20351;-84
2023/11/09 01:55:35;;;;;;;;;;;;;;;8.44;100.00;99866.47;6198709;23;19911;-86
2023/11/09 01:58:00;;;;;;;;;;;;;;;8.48;100.00;99848.13;6226118;23;19915;-85
2023/11/09 02:00:30;;;;;;;;;;;;;;;8.48;100.00;99872.28;6223985;23;20227;-84
2023/11/09 02:02:56;;;;;;;;;;;;;;;8.49;100.00;99863.19;6217194;23;19995;-85
2023/11/09 02:05:24;;;;;;;;;;;;;;;8.49;100.00;99865.88;6223200;23;19912;-86
2023/11/09 02:07:52;;;;;;;;;;;;;;;8.48;100.00;99853.50;6217894;23;19916;-85
2023/11/09 02:10:19;;;;;;;;;;;;;;;8.48;100.00;99848.13;6217739;23;19942;-87
2023/11/09 02:12:44;;;;;;;;;;;;;;;8.43;100.00;99846.06;6217404;23;19946;-85
2023/11/09 02:15:09;;;;;;;;;;;;;;;8.47;100.00;99851.84;6216122;23;19916;-87
2023/11/09 02:17:34;;;;;;;;;;;;;;;8.48;100.00;99842.78;6188538;23;19912;-84
2023/11/09 02:20:00;;;;;;;;;;;;;;;8.46;100.00;99842.16;6188905;23;19986;-84
2023/11/09 02:22:28;;;;;;;;;;;;;;;8.47;100.00;99844.63;6215784;23;19946;-84
2023/11/09 02:24:54;;;;;;;;;;;;;;;8.46;100.00;99828.75;6187377;23;20289;-83
2023/11/09 02:27:20;;;;;;;;;;;;;;;8.42;100.00;99832.88;6215053;23;19918;-83
2023/11/09 02:29:45;;;;;;;;;;;;;;;8.43;100.00;99829.16;6217016;23;19936;-85
2023/11/09 02:32:10;;;;;;;;;;;;;;;8.42;100.00;99828.31;6214386;23;19915;-84
2023/11/09 02:34:37;;;;;;;;;;;;;;;8.43;100.00;99819.25;6215003;23;20000;-86
2023/11/09 02:37:05;;;;;;;;;;;;;;;8.38;100.00;99821.75;6190058;23;19922;-86
2023/11/09 02:39:30;;;;;;;;;;;;;;;8.42;100.00;99806.03;6214610;23;20243;-86
2023/11/09 02:41:56;;;;;;;;;;;;;;;8.42;100.00;99803.38;6214121;23;19915;-87
2023/11/09 02:44:21;;;;;;;;;;;;;;;8.42;100.00;99800.69;6216127;23;19977;-85
2023/11/09 02:46:46;;;;;;;;;;;;;;;8.45;100.00;99792.22;6213679;23;19923;-87
2023/11/09 02:49:12;;;;;;;;;;;;;;;8.45;100.00;99806.44;6212926;23;20612;-87
2023/11/09 02:51:37;;;;;;;;;;;;;;;8.46;100.00;99788.50;6214514;23;20224;-86
2023/11/09 02:54:02;;;;;;;;;;;;;;;8.47;100.00;99779.44;6213742;23;20026;-86
2023/11/09 02:56:28;;;;;;;;;;;;;;;8.46;100.00;99783.16;6213117;23;19966;-86
2023/11/09 02:58:54;;;;;;;;;;;;;;;8.46;100.00;99780.47;6211590;23;19966;-86
2023/11/09 03:01:19;;;;;;;;;;;;;;;8.48;100.00;99767.66;6213399;23;19912;-84
2023/11/09 03:03:44;;;;;;;;;;;;;;;8.50;100.00;99773.66;6211844;23;20034;-86
2023/11/09 03:06:09;;;;;;;;;;;;;;;8.51;100.00;99777.19;6212027;23;19912;-87
2023/11/09 03:08:35;;;;;;;;;;;;;;;8.51;100.00;99771.81;6215355;23;19970;-86
2023/11/09 03:11:00;;;;;;;;;;;;;;;8.52;100.00;99778.81;6216711;23;19946;-86
2023/11/09 03:13:27;;;;;;;;;;;;;;;8.53;100.00;99767.88;6212040;23;20323;-83
2023/11/09 03:15:52;;;;;;;;;;;;;;;8.54;100.00;99777.56;6209820;23;19923;-85
2023/11/09 03:18:19;;;;;;;;;;;;;;;8.56;100.00;99764.78;6212762;23;20296;-86
2023/11/09 03:20:44;;;;;;;;;;;;;;;8.55;100.00;99756.94;6213435;23;20591;-84
2023/11/09 03:23:11;;;;;;;;;;;;;;;8.57;100.00;99773.63;6213722;23;19916;-86
2023/11/09 03:25:38;;;;;;;;;;;;;;;8.53;100.00;99762.50;6213078;23;19986;-87
2023/11/09 03:28:03;;;;;;;;;;;;;;;8.57;100.00;99761.06;6213508;23;19908;-85
2023/11/09 03:30:33;;;;;;;;;;;;;;;8.54;100.00;99758.78;6214504;23;20035;-86
2023/11/09 03:32:59;;;;;;;;;;;;;;;8.55;100.00;99765.81;6186948;23;19927;-87
2023/11/09 03:35:24;;;;;;;;;;;;;;;8.53;100.00;99762.50;6211791;23;19955;-85
2023/11/09 03:37:49;;;;;;;;;;;;;;;8.55;100.00;99757.75;6213675;23;19930;-85
2023/11/09 03:40:14;;;;;;;;;;;;;;;8.53;100.00;99753.66;6212963;23;20007;-86
2023/11/09 03:42:40;;;;;;;;;;;;;;;8.55;100.00;99751.59;6213791;23;19959;-85
2023/11/09 03:45:06;;;;;;;;;;;;;;;8.52;100.00;99755.50;6214744;23;19956;-85
2023/11/09 03:47:31;;;;;;;;;;;;;;;8.52;100.00;99744.75;6213936;23;19982;-86
2023/11/09 03:49:56;;;;;;;;;;;;;;;8.53;100.00;99741.06;6213771;23;19944;-85
2023/11/09 03:52:27;;;;;;;;;;;;;;;8.55;100.00;99749.72;6214788;23;19911;-86
2023/11/09 03:54:52;;;;;;;;;;;;;;;8.53;100.00;99737.56;6210682;23;19987;-85
2023/11/09 03:57:17;;;;;;;;;;;;;;;8.56;100.00;99732.59;6214216;23;19962;-85
2023/11/09 03:59:42;;;;;;;;;;;;;;;8.57;100.00;99734.25;6230671;23;19960;-85
2023/11/09 04:02:08;;;;;;;;;;;;;;;8.58;100.00;99751.16;6233201;23;19989;-86
2023/11/09 04:04:33;;;;;;;;;;;;;;;8.57;100.00;99733.41;6216639;23;19916;-85
2023/11/09 04:06:58;;;;;;;;;;;;;;;8.58;100.00;99740.41;6217576;23;19908;-84
2023/11/09 04:09:24;;;;;;;;;;;;;;;8.61;100.00;99730.09;6213148;23;19939;-84
2023/11/09 04:11:49;;;;;;;;;;;;;;;8.56;100.00;99737.94;6214738;23;19912;-86
2023/11/09 04:14:14;;;;;;;;;;;;;;;8.61;100.00;99703.28;6215752;23;19960;-85
2023/11/09 04:16:40;;;;;;;;;;;;;;;8.57;100.00;99734.25;6213483;23;19923;-87
2023/11/09 04:19:07;;;;;;;;;;;;;;;8.62;100.00;99725.53;6213673;23;19911;-86
2023/11/09 04:21:32;;;;;;;;;;;;;;;8.63;100.00;99733.41;6216675;23;20018;-86
2023/11/09 04:23:57;;;;;;;;;;;;;;;8.59;100.00;99734.84;6212623;23;19943;-86
2023/11/09 04:26:23;;;;;;;;;;;;;;;8.52;100.00;99720.63;6216885;23;19912;-86
2023/11/09 04:28:50;;;;;;;;;;;;;;;8.62;100.00;99725.53;6237698;23;20014;-85
2023/11/09 04:31:16;;;;;;;;;;;;;;;8.69;100.00;99717.47;6227337;23;19916;-86
2023/11/09 04:33:41;;;;;;;;;;;;;;;8.71;100.00;99728.81;6215741;23;19919;-85
2023/11/09 04:36:08;;;;;;;;;;;;;;;8.70;100.00;99735.22;6217078;23;19916;-85
2023/11/09 04:38:38;;;;;;;;;;;;;;;8.66;100.00;99732.16;6208755;23;19915;-86
2023/11/09 04:41:09;;;;;;;;;;;;;;;8.73;100.00;99727.59;6213804;23;19916;-85
2023/11/09 04:43:34;;;;;;;;;;;;;;;8.75;100.00;99730.84;6214455;23;19982;-86
2023/11/09 04:46:05;;;;;;;;;;;;;;;8.80;100.00;99728.38;6213136;23;19939;-85
2023/11/09 04:48:31;;;;;;;;;;;;;;;8.79;100.00;99725.91;6214645;23;19943;-85
2023/11/09 04:51:01;;;;;;;;;;;;;;;8.79;100.00;99736.63;6215916;23;19916;-84
2023/11/09 04:53:41;;;;;;;;;;;;;;;8.80;100.00;99724.88;6220006;23;19968;-85
2023/11/09 04:56:19;;;;;;;;;;;;;;;8.78;100.00;99724.25;6203814;23;19942;-85
2023/11/09 04:58:44;;;;;;;;;;;;;;;8.81;100.00;99739.94;6230319;23;19912;-85
2023/11/09 05:06:51;;;;;;;;;;;;;;;8.84;100.00;99727.94;6215405;23;19955;-84
2023/11/09 05:09:18;;;;;;;;;;;;;;;8.86;100.00;99721.31;6213329;23;19931;-85
2023/11/09 05:11:43;;;;;;;;;;;;;;;8.84;100.00;99728.75;6213975;23;19916;-86
2023/11/09 05:14:09;;;;;;;;;;;;;;;8.81;100.00;99713.09;6215524;23;20281;-86
2023/11/09 05:16:35;;;;;;;;;;;;;;;8.86;100.00;99721.31;6214924;23;19946;-86
2023/11/09 05:19:02;;;;;;;;;;;;;;;8.90;100.00;99730.59;6213735;23;19916;-86
2023/11/09 05:21:27;;;;;;;;;;;;;;;8.91;100.00;99724.19;6215754;23;19916;-85
2023/11/09 05:23:53;;;;;;;;;;;;;;;8.86;100.00;99721.31;6215966;23;19926;-86
2023/11/09 05:26:18;;;;;;;;;;;;;;;8.93;100.00;99716.75;6233834;23;19924;-86
2023/11/09 05:28:45;;;;;;;;;;;;;;;8.91;100.00;99718.81;6224376;23;19919;-85
2023/11/09 05:31:13;;;;;;;;;;;;;;;8.86;100.00;99721.31;6220193;23;19991;-87
2023/11/09 05:33:39;;;;;;;;;;;;;;;8.85;100.00;99719.66;6218964;23;19935;-86
2023/11/09 05:36:07;;;;;;;;;;;;;;;8.91;100.00;99713.47;6218491;23;19960;-85
2023/11/09 05:38:55;;;;;;;;;;;;;;;8.90;100.00;99722.53;6220097;23;20328;-86
2023/11/09 05:41:20;;;;;;;;;;;;;;;8.98;100.00;99717.97;6216769;23;19994;-83
2023/11/09 05:43:47;;;;;;;;;;;;;;;8.98;100.00;99712.59;6218029;23;19916;-83
2023/11/09 05:46:12;;;;;;;;;;;;;;;9.04;100.00;99714.41;6215005;23;19966;-83
2023/11/09 05:48:37;;;;;;;;;;;;;;;8.99;100.00;99727.69;6214927;23;20321;-82
2023/11/09 05:51:03;;;;;;;;;;;;;;;8.98;100.00;99717.97;6216447;23;19915;-82
2023/11/09 05:53:28;;;;;;;;;;;;;;;9.04;100.00;99734.03;6215638;23;19919;-82
2023/11/09 05:55:53;;;;;;;;;;;;;;;9.08;100.00;99723.69;6213996;23;19920;-83
2023/11/09 05:58:19;;;;;;;;;;;;;;;9.09;100.00;99728.03;6215345;23;19955;-83
2023/11/09 06:00:44;;;;;;;;;;;;;;;9.09;100.00;99726.16;6215314;23;19919;-83
2023/11/09 06:03:11;;;;;;;;;;;;;;;9.06;100.00;99728.44;6213784;23;20007;-82
2023/11/09 06:05:54;;;;;;;;;;;;;;;8.98;100.00;99726.84;6215173;23;20564;-83
2023/11/09 06:08:21;;;;;;;;;;;;;;;8.97;100.00;99722.50;6215723;23;19980;-83
2023/11/09 06:10:49;;;;;;;;;;;;;;;9.01;100.00;99734.47;6211581;23;19931;-83
2023/11/09 06:13:14;;;;;;;;;;;;;;;9.05;100.00;99740.22;6215046;23;19919;-83
2023/11/09 06:15:39;;;;;;;;;;;;;;;9.00;100.00;99735.50;6214134;23;19908;-83
2023/11/09 06:18:04;;;;;;;;;;;;;;;9.00;100.00;99735.50;6214648;23;19912;-83
2023/11/09 06:20:30;;;;;;;;;;;;;;;8.92;100.00;99731.22;6216509;23;19970;-84
2023/11/09 06:22:55;;;;;;;;;;;;;;;9.01;100.00;99739.00;6214435;23;19970;-83
2023/11/09 06:25:20;;;;;;;;;;;;;;;9.04;100.00;99725.16;6215913;23;19931;-83
2023/11/09 06:27:46;;;;;;;;;;;;;;;8.99;100.00;99743.78;6217481;23;19912;-83
2023/11/09 06:30:11;;;;;;;;;;;;;;;8.98;100.00;99736.75;6216015;23;19943;-83
2023/11/09 06:32:36;;;;;;;;;;;;;;;9.01;100.00;99739.00;6216329;23;20010;-83
2023/11/09 06:35:03;;;;;;;;;;;;;;;9.04;100.00;99742.09;6216390;23;19915;-83
2023/11/09 06:37:30;;;;;;;;;;;;;;;9.03;100.00;99753.88;6214955;23;19912;-83
2023/11/09 06:39:58;;;;;;;;;;;;;;;8.98;100.00;99763.59;6216236;23;19912;-84
2023/11/09 06:42:23;;;;;;;;;;;;;;;8.97;100.00;99760.09;6192123;23;19923;-83
2023/11/09 06:44:52;;;;;;;;;;;;;;;9.07;100.00;99759.63;6191360;23;19966;-83
2023/11/09 06:47:17;;;;;;;;;;;;;;;9.12;100.00;99772.41;6215038;23;20009;-83
2023/11/09 06:49:43;;;;;;;;;;;;;;;9.07;100.00;99770.38;6216574;23;20299;-83
2023/11/09 06:52:09;;;;;;;;;;;;;;;9.06;100.00;99774.09;6215029;23;20330;-83
2023/11/09 06:54:34;;;;;;;;;;;;;;;9.02;100.00;99784.44;6215440;23;20390;-84
2023/11/09 06:57:00;;;;;;;;;;;;;;;9.03;100.00;99778.03;6213663;23;19912;-83
2023/11/09 06:59:25;;;;;;;;;;;;;;;9.10;100.00;99786.06;6214323;23;19916;-83
2023/11/09 07:01:50;;;;;;;;;;;;;;;9.04;100.00;99786.91;6213700;23;19923;-83
2023/11/09 07:04:17;;;;;;;;;;;;;;;9.03;100.00;99796.00;6213789;23;19912;-83
2023/11/09 07:06:44;;;;;;;;;;;;;;;9.08;100.00;99806.91;6213894;23;19912;-83
2023/11/09 07:09:09;;;;;;;;;;;;;;;9.04;100.00;99805.69;6213963;23;19916;-83
2023/11/09 07:11:35;;;;;;;;;;;;;;;9.01;100.00;99796.22;6214606;23;20380;-84
2023/11/09 07:14:01;;;;;;;;;;;;;;;9.08;100.00;99799.72;6214369;23;19939;-83
2023/11/09 07:16:26;;;;;;;;;;;;;;;8.93;100.00;99810.69;6214297;23;19916;-83
2023/11/09 07:18:52;;;;;;;;;;;;;;;8.96;100.00;99814.81;6214913;23;19912;-82
2023/11/09 07:21:20;;;;;;;;;;;;;;;8.91;100.00;99812.75;6213351;23;20208;-83
2023/11/09 07:23:47;;;;;;;;;;;;;;;8.85;100.00;99810.91;6213744;23;19920;-79
2023/11/09 07:26:13;;;;;;;;;;;;;;;8.78;100.00;99813.63;6211328;23;20702;-80
2023/11/09 07:28:38;;;;;;;;;;;;;;;8.83;100.00;99818.34;6215241;23;19922;-82
2023/11/09 07:31:03;;;;;;;;;;;;;;;8.91;100.00;99826.19;6215337;23;19922;-77
2023/11/09 07:33:29;;;;;;;;;;;;;;;8.78;100.00;99829.72;6214661;23;19967;-78
2023/11/09 07:35:55;;;;;;;;;;;;;;;8.74;100.00;99822.31;6214618;23;20046;-83
2023/11/09 07:38:21;;;;;;;;;;;;;;;8.77;100.00;99828.06;6213379;23;19912;-79
2023/11/09 07:40:46;;;;;;;;;;;;;;;8.72;100.00;99827.06;6215350;23;19987;-80
2023/11/09 07:43:11;;;;;;;;;;;;;;;8.64;100.00;99831.63;6218210;23;20217;-80
2023/11/09 07:45:37;;;;;;;;;;;;;;;8.63;100.00;99838.03;6216118;23;20296;-80
2023/11/09 07:48:05;;;;;;;;;;;;;;;8.61;100.00;99840.09;6215692;23;20317;-80
2023/11/09 07:50:31;;;;;;;;;;;;;;;8.67;100.00;99842.94;6212661;23;19912;-81
2023/11/09 07:52:56;;;;;;;;;;;;;;;8.60;100.00;99846.50;6215190;23;19966;-79
2023/11/09 07:55:22;;;;;;;;;;;;;;;8.61;100.00;99845.47;6187272;23;19912;-79
2023/11/09 07:57:48;;;;;;;;;;;;;;;8.58;100.00;99851.25;6216460;23;19930;-81
2023/11/09 08:00:14;;;;;;;;;;;;;;;8.59;100.00;99860.09;6220904;23;19912;-78
2023/11/09 08:02:39;;;;;;;;;;;;;;;8.63;100.00;99856.81;6212507;23;19952;-80
2023/11/09 08:05:05;;;;;;;;;;;;;;;8.64;100.00;99847.72;6213715;23;20023;-79
2023/11/09 08:07:31;;;;;;;;;;;;;;;8.70;100.00;99858.63;6211881;23;20411;-80
2023/11/09 08:09:56;;;;;;;;;;;;;;;8.76;100.00;99852.44;6210884;23;19967;-81
2023/11/09 08:12:23;;;;;;;;;;;;;;;8.75;100.00;99853.47;6220382;23;19907;-82
2023/11/09 08:14:48;;;;;;;;;;;;;;;8.74;100.00;99859.88;6230884;23;19912;-85
2023/11/09 08:17:14;;;;;;;;;;;;;;;8.67;100.00;99873.31;6213699;23;20222;-81
2023/11/09 08:19:39;;;;;;;;;;;;;;;8.62;100.00;99868.56;6213068;23;19982;-81
2023/11/09 08:22:04;;;;;;;;;;;;;;;8.59;100.00;99871.66;6204273;23;20017;-81
2023/11/09 08:24:29;;;;;;;;;;;;;;;8.62;100.00;99868.56;6181342;23;19919;-81
2023/11/09 08:26:55;;;;;;;;;;;;;;;8.62;100.00;99860.53;6183926;23;19932;-81
2023/11/09 08:29:20;;;;;;;;;;;;;;;8.60;100.00;99854.53;6186286;23;19958;-81
2023/11/09 08:31:47;;;;;;;;;;;;;;;8.77;100.00;99862.16;6187514;23;19908;-81
2023/11/09 08:34:12;;;;;;;;;;;;;;;8.74;100.00;99865.25;6191840;23;19934;-80
2023/11/09 08:36:37;;;;;;;;;;;;;;;8.67;100.00;99862.56;6181919;23;20287;-81
2023/11/09 08:39:03;;;;;;;;;;;;;;;8.67;100.00;99854.53;6182334;23;20050;-81
2023/11/09 08:41:29;;;;;;;;;;;;;;;8.89;100.00;99857.78;6183608;23;19958;-81
2023/11/09 08:43:55;;;;;;;;;;;;;;;9.00;100.00;99850.13;6182102;23;19955;-81
2023/11/09 08:46:21;;;;;;;;;;;;;;;8.99;100.00;99849.28;6182373;23;19916;-82
2023/11/09 08:48:46;;;;;;;;;;;;;;;9.02;100.00;99856.91;6182031;23;19912;-81
2023/11/09 08:51:13;;;;;;;;;;;;;;;9.12;100.00;99861.84;6181284;23;20089;-82
2023/11/09 08:53:39;;;;;;;;;;;;;;;9.01;100.00;99862.47;6184496;23;20282;-81
2023/11/09 08:56:06;;;;;;;;;;;;;;;9.08;100.00;99864.13;6186706;23;19912;-82
2023/11/09 09:01:16;;;;;;;;;;;;;;;8.98;100.00;99868.31;6220927;22;19931;-82
2023/11/09 09:04:09;;;;;;;;;;;;;;;8.87;100.00;99869.78;6197379;23;19916;-82
2023/11/09 09:06:40;;;;;;;;;;;;;;;9.01;100.00;99865.16;6213531;23;20019;-82
2023/11/09 09:09:12;;;;;;;;;;;;;;;8.90;100.00;99872.84;6213328;23;19919;-82
2023/11/09 09:11:39;;;;;;;;;;;;;;;8.88;100.00;99874.09;6214066;23;19990;-81
2023/11/09 09:14:04;;;;;;;;;;;;;;;9.17;100.00;99883.53;6213283;23;19919;-82
2023/11/09 09:16:31;;;;;;;;;;;;;;;9.01;100.00;99874.06;6213986;23;19920;-82
2023/11/09 09:18:56;;;;;;;;;;;;;;;9.14;100.00;99875.88;6187263;23;19916;-82
2023/11/09 09:21:23;;;;;;;;;;;;;;;9.25;100.00;99883.28;6214495;23;20229;-81
2023/11/09 09:23:49;;;;;;;;;;;;;;;9.24;100.00;99884.31;6213496;23;19935;-80
2023/11/09 09:26:15;;;;;;;;;;;;;;;9.27;100.00;99875.00;6214103;23;20113;-81
2023/11/09 09:28:45;;;;;;;;;;;;;;;9.27;100.00;99875.00;6214790;23;20011;-81
2023/11/09 09:31:11;;;;;;;;;;;;;;;9.25;100.00;99880.59;6216082;23;19939;-82
2023/11/09 09:33:39;;;;;;;;;;;;;;;9.20;100.00;99876.91;6213237;23;20033;-81
2023/11/09 09:36:05;;;;;;;;;;;;;;;9.16;100.00;99886.41;6212399;23;20472;-81
2023/11/09 09:38:34;;;;;;;;;;;;;;;9.32;100.00;99887.81;6212172;23;19915;-81
2023/11/09 09:41:01;;;;;;;;;;;;;;;9.33;100.00;99887.59;6211516;23;20382;-81
2023/11/09 09:43:26;;;;;;;;;;;;;;;9.25;100.00;99890.53;6186706;23;19992;-81
2023/11/09 09:45:54;;;;;;;;;;;;;;;9.25;100.00;99882.47;6213156;23;20263;-81
2023/11/09 09:48:21;;;;;;;;;;;;;;;9.37;100.00;99882.59;6184086;23;19911;-81
2023/11/09 09:50:48;;;;;;;;;;;;;;;9.47;100.00;99872.25;6185473;23;20277;-82
2023/11/09 09:53:13;;;;;;;;;;;;;;;9.64;100.00;99877.13;6185293;23;19954;-81
2023/11/09 09:55:40;;;;;;;;;;;;;;;9.51;100.00;99881.53;6212153;23;19912;-81
2023/11/09 09:58:06;;;;;;;;;;;;;;;9.72;100.00;99882.22;6211866;23;19995;-81
2023/11/09 10:00:31;;;;;;;;;;;;;;;9.64;100.00;99880.63;6211433;23;19970;-79
2023/11/09 10:03:06;;;;;;;;;;;;;;;9.98;100.00;99885.81;6211938;23;19920;-79
2023/11/09 10:05:33;;;;;;;;;;;;;;;10.11;100.00;99883.03;6212225;23;19912;-79
2023/11/09 10:07:59;;;;;;;;;;;;;;;9.93;100.00;99880.25;6184074;23;19947;-76
2023/11/09 10:10:26;;;;;;;;;;;;;;;10.31;100.00;99876.66;6212324;23;19970;-78
2023/11/09 10:12:55;;;;;;;;;;;;;;;10.08;100.00;99878.06;6213026;23;20275;-78
2023/11/09 10:15:24;;;;;;;;;;;;;;;10.19;100.00;99878.44;6211186;23;19916;-78
2023/11/09 10:17:49;;;;;;;;;;;;;;;10.24;100.00;99875.88;6212926;23;20011;-77
2023/11/09 10:20:15;;;;;;;;;;;;;;;10.30;100.00;99881.25;6211973;23;19912;-77
2023/11/09 10:22:40;;;;;;;;;;;;;;;10.63;100.00;99887.41;6210606;23;19920;-76
2023/11/09 10:25:06;;;;;;;;;;;;;;;10.80;100.00;99878.75;6212781;23;19912;-74
2023/11/09 10:27:31;;;;;;;;;;;;;;;10.70;100.00;99884.63;6186471;23;19912;-75
2023/11/09 10:29:56;;;;;;;;;;;;;;;10.74;99.37;99886.69;6212059;23;20339;-75
2023/11/09 10:32:22;;;;;;;;;;;;;;;10.70;100.00;99890.84;6186376;23;19920;-79
2023/11/09 10:34:50;;;;;;;;;;;;;;;10.92;99.44;99895.84;6213766;23;20248;-78
2023/11/09 10:37:18;;;;;;;;;;;;;;;10.86;98.39;99889.44;6185106;23;19970;-78
2023/11/09 10:39:46;;;;;;;;;;;;;;;10.72;100.00;99888.78;6211914;23;19992;-78
2023/11/09 10:42:12;;;;;;;;;;;;;;;10.88;97.34;99891.94;6213521;23;19942;-79
2023/11/09 10:44:42;;;;;;;;;;;;;;;10.87;95.48;99885.72;6185098;23;19912;-77
2023/11/09 10:47:08;;;;;;;;;;;;;;;10.87;96.95;99887.59;6212395;23;20313;-77
2023/11/09 10:49:35;;;;;;;;;;;;;;;11.15;96.37;99880.84;6186377;23;19926;-79
2023/11/09 10:52:00;;;;;;;;;;;;;;;11.42;94.48;99880.56;6184663;23;19931;-78
2023/11/09 10:54:29;;;;;;;;;;;;;;;11.50;92.73;99882.94;6185333;23;19962;-78
2023/11/09 10:56:59;;;;;;;;;;;;;;;11.63;88.60;99882.78;6213039;23;19915;-80
2023/11/09 10:59:26;;;;;;;;;;;;;;;11.52;87.44;99870.88;6212281;23;19916;-78
2023/11/09 11:02:04;;;;;;;;;;;;;;;11.33;88.51;99878.16;6214217;23;19964;-79
2023/11/09 11:04:30;;;;;;;;;;;;;;;11.26;90.13;99877.44;6211124;23;19923;-79
2023/11/09 11:06:56;;;;;;;;;;;;;;;11.31;90.33;99879.44;6210721;23;19963;-78
2023/11/09 11:09:26;;;;;;;;;;;;;;;11.34;89.35;99879.81;6212287;23;19919;-78
2023/11/09 11:11:54;;;;;;;;;;;;;;;11.63;91.82;99874.69;6211473;23;19926;-77
2023/11/09 11:14:19;;;;;;;;;;;;;;;11.54;88.41;99876.03;6212175;23;19915;-77
2023/11/09 11:16:57;;;;;;;;;;;;;;;11.77;86.89;99866.41;6185830;23;19949;-78
2023/11/09 11:19:34;;;;;;;;;;;;;;;11.76;86.93;99879.06;6211498;23;19916;-77
2023/11/09 11:22:08;;;;;;;;;;;;;;;12.12;82.50;99865.72;6211271;23;19916;-77
2023/11/09 11:24:33;;;;;;;;;;;;;;;11.82;81.87;99872.75;6211994;23;19919;-77
2023/11/09 11:27:14;;;;;;;;;;;;;;;12.13;80.22;99856.56;6212324;23;19911;-77
2023/11/09 11:29:40;;;;;;;;;;;;;;;12.67;78.17;99858.38;6212309;23;19928;-77
2023/11/09 11:32:08;;;;;;;;;;;;;;;12.66;76.71;99851.31;6210752;23;19970;-77
2023/11/09 11:34:44;;;;;;;;;;;;;;;13.65;74.01;99852.28;6211788;23;19974;-76
2023/11/09 11:37:11;;;;;;;;;;;;;;;14.09;73.00;99865.22;6212221;23;19908;-77
2023/11/09 11:39:37;;;;;;;;;;;;;;;13.64;70.91;99856.88;6211118;23;20377;-76
2023/11/09 11:42:16;;;;;;;;;;;;;;;13.35;72.56;99862.22;6211082;23;19912;-77
2023/11/09 11:44:46;;;;;;;;;;;;;;;13.76;70.58;99856.84;6211915;23;19923;-76
2023/11/09 11:47:12;;;;;;;;;;;;;;;13.18;71.06;99856.75;6186542;23;19912;-77
2023/11/09 11:49:37;;;;;;;;;;;;;;;12.02;72.68;99855.50;6188090;23;20294;-77
2023/11/09 11:52:02;;;;;;;;;;;;;;;12.03;73.76;99843.66;6214335;23;19977;-76
2023/11/09 11:54:27;;;;;;;;;;;;;;;12.15;73.79;99838.28;6213845;23;19990;-78
2023/11/09 11:56:53;;;;;;;;;;;;;;;12.49;73.78;99845.78;6214993;23;20214;-77
2023/11/09 11:59:22;;;;;;;;;;;;;;;13.69;70.19;99847.19;6214875;23;19958;-77
2023/11/09 12:01:50;;;;;;;;;;;;;;;14.04;67.55;99852.44;6214254;23;20222;-77
2023/11/09 12:04:15;;;;;;;;;;;;;;;13.66;67.80;99853.13;6214162;23;20015;-77
2023/11/09 12:06:41;;;;;;;;;;;;;;;13.26;70.87;99860.97;6214426;23;20055;-77
2023/11/09 12:09:10;;;;;;;;;;;;;;;13.28;70.15;99850.75;6183846;23;19916;-77
2023/11/09 12:11:43;;;;;;;;;;;;;;;13.64;69.59;99856.03;6213123;23;19979;-77
2023/11/09 12:14:08;;;;;;;;;;;;;;;14.07;67.20;99851.09;6212689;23;19935;-77
2023/11/09 12:16:37;;;;;;;;;;;;;;;14.82;62.35;99845.53;6211186;23;21488;-77
2023/11/09 12:19:06;;;;;;;;;;;;;;;15.47;60.24;99837.63;6213246;23;19916;-77
2023/11/09 12:21:34;;;;;;;;;;;;;;;15.27;59.13;99839.03;6212585;23;20347;-77
2023/11/09 12:24:00;;;;;;;;;;;;;;;14.56;61.05;99834.28;6214408;23;20237;-78
2023/11/09 12:26:32;;;;;;;;;;;;;;;14.65;60.18;99835.47;6217504;23;19936;-78
2023/11/09 12:28:58;;;;;;;;;;;;;;;15.06;59.87;99827.13;6228628;23;19916;-78
2023/11/09 12:31:25;;;;;;;;;;;;;;;14.88;59.87;99828.25;6214519;23;19927;-78
2023/11/09 12:34:22;;;;;;;;;;;;;;;13.55;64.04;99831.28;6218200;23;20301;-79
2023/11/09 12:36:50;;;;;;;;;;;;;;;12.64;68.88;99818.34;6188834;23;20158;-78
2023/11/09 12:39:28;;;;;;;;;;;;;;;11.94;71.62;99818.84;6213870;23;19912;-77
2023/11/09 12:41:55;;;;;;;;;;;;;;;12.34;71.07;99821.97;6211048;23;19912;-78
2023/11/09 12:44:24;;;;;;;;;;;;;;;13.04;67.34;99814.88;6210881;23;19923;-77
2023/11/09 12:46:55;;;;;;;;;;;;;;;14.29;63.07;99815.19;6213106;23;20273;-77
2023/11/09 12:49:21;;;;;;;;;;;;;;;15.42;58.75;99814.00;6186198;23;19916;-77
2023/11/09 12:51:47;;;;;;;;;;;;;;;15.74;54.40;99793.38;6211445;23;19930;-77
2023/11/09 12:54:13;;;;;;;;;;;;;;;15.31;56.62;99802.22;6185562;23;19912;-77
2023/11/09 12:56:38;;;;;;;;;;;;;;;16.15;53.07;99809.25;6184911;23;19912;-77
2023/11/09 12:59:07;;;;;;;;;;;;;;;16.06;52.79;99796.16;6185336;23;20367;-77
2023/11/09 13:01:32;;;;;;;;;;;;;;;15.46;54.23;99808.88;6211583;23;20054;-77
2023/11/09 13:03:57;;;;;;;;;;;;;;;14.74;56.03;99799.88;6212437;23;19939;-77
2023/11/09 13:06:23;;;;;;;;;;;;;;;13.51;60.40;99791.44;6214311;23;19923;-77
2023/11/09 13:09:04;;;;;;;;;;;;;;;12.64;64.68;99794.03;6214514;23;20411;-77
2023/11/09 13:11:43;;;;;;;;;;;;;;;12.40;65.39;99794.88;6209818;23;20018;-77
2023/11/09 13:14:15;;;;;;;;;;;;;;;12.49;64.60;99789.94;6210718;23;19912;-79
2023/11/09 13:16:41;;;;;;;;;;;;;;;12.56;64.42;99781.72;6210536;23;19991;-76
2023/11/09 13:19:06;;;;;;;;;;;;;;;12.22;66.12;99790.41;6209259;23;19970;-76
2023/11/09 13:21:32;;;;;;;;;;;;;;;11.76;65.57;99775.78;6211870;23;20351;-76
2023/11/09 13:23:58;;;;;;;;;;;;;;;11.65;67.15;99777.41;6184822;23;19939;-77
2023/11/09 13:26:30;;;;;;;;;;;;;;;11.37;69.39;99776.97;6209931;23;20014;-76